sensor_id;sensor_type;location;lat;lon;timestamp;P1;durP1;ratioP1;P2;durP2;ratioP2
75272;SDS011;63869;52.344;16.928;2023-02-23T04:02:10;13.65;;;6.50;;
75272;SDS011;63869;52.344;16.928;2023-02-23T04:05:00;18.33;;;7.35;;
75272;SDS011;63869;52.344;16.928;2023-02-23T04:07:46;15.55;;;6.28;;
75272;SDS011;63869;52.344;16.928;2023-02-23T04:10:31;15.73;;;7.32;;
75272;SDS011;63869;52.344;16.928;2023-02-23T04:13:18;14.95;;;6.75;;
75272;SDS011;63869;52.344;16.928;2023-02-23T04:18:25;16.70;;;7.05;;
75272;SDS011;63869;52.344;16.928;2023-02-23T04:20:52;17.15;;;6.45;;
75272;SDS011;63869;52.344;16.928;2023-02-23T04:23:18;14.90;;;7.03;;
75272;SDS011;63869;52.344;16.928;2023-02-23T04:25:43;15.23;;;7.03;;
75272;SDS011;63869;52.344;16.928;2023-02-23T04:28:09;15.38;;;6.88;;
75272;SDS011;63869;52.344;16.928;2023-02-23T04:30:34;17.73;;;7.03;;
75272;SDS011;63869;52.344;16.928;2023-02-23T04:33:00;16.70;;;7.32;;
75272;SDS011;63869;52.344;16.928;2023-02-23T04:35:25;20.05;;;7.68;;
75272;SDS011;63869;52.344;16.928;2023-02-23T04:37:52;15.50;;;6.57;;
75272;SDS011;63869;52.344;16.928;2023-02-23T04:40:18;16.98;;;7.57;;
75272;SDS011;63869;52.344;16.928;2023-02-23T04:42:43;19.25;;;7.30;;
75272;SDS011;63869;52.344;16.928;2023-02-23T04:45:09;15.65;;;6.75;;
75272;SDS011;63869;52.344;16.928;2023-02-23T04:47:34;19.05;;;7.18;;
75272;SDS011;63869;52.344;16.928;2023-02-23T04:50:00;18.52;;;7.15;;
75272;SDS011;63869;52.344;16.928;2023-02-23T04:52:25;19.00;;;6.93;;
75272;SDS011;63869;52.344;16.928;2023-02-23T04:54:51;13.82;;;6.70;;
75272;SDS011;63869;52.344;16.928;2023-02-23T04:57:16;17.55;;;7.50;;
75272;SDS011;63869;52.344;16.928;2023-02-23T04:59:42;19.58;;;7.82;;
75272;SDS011;63869;52.344;16.928;2023-02-23T05:02:07;17.42;;;7.18;;
75272;SDS011;63869;52.344;16.928;2023-02-23T05:04:32;17.98;;;7.30;;
75272;SDS011;63869;52.344;16.928;2023-02-23T05:07:01;16.67;;;6.43;;
75272;SDS011;63869;52.344;16.928;2023-02-23T05:09:27;17.20;;;6.93;;
75272;SDS011;63869;52.344;16.928;2023-02-23T05:11:53;18.23;;;7.70;;
75272;SDS011;63869;52.344;16.928;2023-02-23T05:14:18;13.07;;;6.53;;
75272;SDS011;63869;52.344;16.928;2023-02-23T05:16:44;14.27;;;6.88;;
75272;SDS011;63869;52.344;16.928;2023-02-23T05:19:09;15.43;;;6.97;;
75272;SDS011;63869;52.344;16.928;2023-02-23T05:21:34;16.05;;;7.13;;
75272;SDS011;63869;52.344;16.928;2023-02-23T05:24:00;21.17;;;7.63;;
75272;SDS011;63869;52.344;16.928;2023-02-23T05:26:25;16.55;;;6.97;;
75272;SDS011;63869;52.344;16.928;2023-02-23T05:28:51;16.75;;;7.43;;
75272;SDS011;63869;52.344;16.928;2023-02-23T05:31:16;17.58;;;6.85;;
75272;SDS011;63869;52.344;16.928;2023-02-23T05:33:42;17.40;;;7.20;;
75272;SDS011;63869;52.344;16.928;2023-02-23T05:36:12;18.05;;;7.70;;
75272;SDS011;63869;52.344;16.928;2023-02-23T05:38:40;17.15;;;7.53;;
75272;SDS011;63869;52.344;16.928;2023-02-23T05:41:06;17.73;;;7.90;;
75272;SDS011;63869;52.344;16.928;2023-02-23T05:43:36;14.95;;;7.22;;
75272;SDS011;63869;52.344;16.928;2023-02-23T05:46:04;20.52;;;7.50;;
75272;SDS011;63869;52.344;16.928;2023-02-23T05:48:31;16.52;;;7.32;;
75272;SDS011;63869;52.344;16.928;2023-02-23T05:51:00;15.23;;;6.97;;
75272;SDS011;63869;52.344;16.928;2023-02-23T05:53:29;13.38;;;6.95;;
75272;SDS011;63869;52.344;16.928;2023-02-23T05:55:54;19.92;;;7.90;;
75272;SDS011;63869;52.344;16.928;2023-02-23T05:58:19;19.45;;;8.23;;
75272;SDS011;63869;52.344;16.928;2023-02-23T06:00:44;16.50;;;7.75;;
75272;SDS011;63869;52.344;16.928;2023-02-23T06:03:10;18.77;;;8.45;;
75272;SDS011;63869;52.344;16.928;2023-02-23T06:05:35;19.35;;;7.03;;
75272;SDS011;63869;52.344;16.928;2023-02-23T06:08:00;17.30;;;7.45;;
75272;SDS011;63869;52.344;16.928;2023-02-23T06:10:26;24.00;;;8.88;;
75272;SDS011;63869;52.344;16.928;2023-02-23T06:12:53;21.92;;;8.18;;
75272;SDS011;63869;52.344;16.928;2023-02-23T06:15:18;19.63;;;7.80;;
75272;SDS011;63869;52.344;16.928;2023-02-23T06:17:44;23.55;;;8.70;;
75272;SDS011;63869;52.344;16.928;2023-02-23T06:20:10;21.88;;;8.25;;
75272;SDS011;63869;52.344;16.928;2023-02-23T06:22:37;19.45;;;7.95;;
75272;SDS011;63869;52.344;16.928;2023-02-23T06:25:02;24.27;;;9.10;;
75272;SDS011;63869;52.344;16.928;2023-02-23T06:27:30;19.60;;;8.05;;
75272;SDS011;63869;52.344;16.928;2023-02-23T06:29:56;20.48;;;8.68;;
75272;SDS011;63869;52.344;16.928;2023-02-23T06:32:22;19.15;;;7.95;;
75272;SDS011;63869;52.344;16.928;2023-02-23T06:34:47;17.95;;;7.75;;
75272;SDS011;63869;52.344;16.928;2023-02-23T06:37:12;19.67;;;8.80;;
75272;SDS011;63869;52.344;16.928;2023-02-23T06:39:38;21.33;;;8.88;;
75272;SDS011;63869;52.344;16.928;2023-02-23T06:42:03;23.58;;;8.77;;
75272;SDS011;63869;52.344;16.928;2023-02-23T06:44:28;21.83;;;8.98;;
75272;SDS011;63869;52.344;16.928;2023-02-23T06:46:54;21.35;;;8.50;;
75272;SDS011;63869;52.344;16.928;2023-02-23T06:49:20;20.90;;;8.48;;
75272;SDS011;63869;52.344;16.928;2023-02-23T06:51:45;21.77;;;8.85;;
75272;SDS011;63869;52.344;16.928;2023-02-23T06:54:11;18.25;;;8.18;;
75272;SDS011;63869;52.344;16.928;2023-02-23T06:56:37;18.58;;;9.02;;
75272;SDS011;63869;52.344;16.928;2023-02-23T06:59:02;20.25;;;7.80;;
75272;SDS011;63869;52.344;16.928;2023-02-23T07:01:27;18.67;;;9.23;;
75272;SDS011;63869;52.344;16.928;2023-02-23T07:03:55;24.33;;;10.57;;
75272;SDS011;63869;52.344;16.928;2023-02-23T07:06:20;19.02;;;8.40;;
75272;SDS011;63869;52.344;16.928;2023-02-23T07:08:46;22.58;;;8.70;;
75272;SDS011;63869;52.344;16.928;2023-02-23T07:11:12;25.30;;;9.75;;
75272;SDS011;63869;52.344;16.928;2023-02-23T07:13:40;19.73;;;9.15;;
75272;SDS011;63869;52.344;16.928;2023-02-23T07:16:09;18.63;;;9.20;;
75272;SDS011;63869;52.344;16.928;2023-02-23T07:18:36;22.75;;;9.75;;
75272;SDS011;63869;52.344;16.928;2023-02-23T07:21:01;21.52;;;9.30;;
75272;SDS011;63869;52.344;16.928;2023-02-23T07:23:26;19.55;;;9.18;;
75272;SDS011;63869;52.344;16.928;2023-02-23T07:25:52;18.83;;;8.60;;
75272;SDS011;63869;52.344;16.928;2023-02-23T07:28:20;18.10;;;8.90;;
75272;SDS011;63869;52.344;16.928;2023-02-23T07:30:46;21.42;;;9.50;;
75272;SDS011;63869;52.344;16.928;2023-02-23T07:33:15;19.52;;;9.77;;
75272;SDS011;63869;52.344;16.928;2023-02-23T07:35:40;17.77;;;8.50;;
75272;SDS011;63869;52.344;16.928;2023-02-23T07:38:07;20.38;;;9.40;;
75272;SDS011;63869;52.344;16.928;2023-02-23T07:40:32;22.70;;;9.35;;
75272;SDS011;63869;52.344;16.928;2023-02-23T07:42:58;22.20;;;9.32;;
75272;SDS011;63869;52.344;16.928;2023-02-23T07:45:23;21.02;;;9.20;;
75272;SDS011;63869;52.344;16.928;2023-02-23T07:47:49;21.77;;;9.40;;
75272;SDS011;63869;52.344;16.928;2023-02-23T07:50:14;22.52;;;9.20;;
75272;SDS011;63869;52.344;16.928;2023-02-23T07:52:40;21.67;;;9.75;;
75272;SDS011;63869;52.344;16.928;2023-02-23T07:55:07;22.60;;;10.07;;
75272;SDS011;63869;52.344;16.928;2023-02-23T07:57:33;18.17;;;8.88;;
75272;SDS011;63869;52.344;16.928;2023-02-23T07:59:58;22.17;;;9.65;;
75272;SDS011;63869;52.344;16.928;2023-02-23T08:02:24;21.83;;;9.63;;
75272;SDS011;63869;52.344;16.928;2023-02-23T08:04:49;21.52;;;9.90;;
75272;SDS011;63869;52.344;16.928;2023-02-23T08:07:18;20.42;;;9.13;;
75272;SDS011;63869;52.344;16.928;2023-02-23T08:09:43;22.35;;;10.18;;
75272;SDS011;63869;52.344;16.928;2023-02-23T08:12:09;22.65;;;9.63;;
75272;SDS011;63869;52.344;16.928;2023-02-23T08:14:34;21.23;;;10.18;;
75272;SDS011;63869;52.344;16.928;2023-02-23T08:16:59;25.20;;;10.85;;
75272;SDS011;63869;52.344;16.928;2023-02-23T08:19:25;22.95;;;10.65;;
75272;SDS011;63869;52.344;16.928;2023-02-23T08:21:51;21.95;;;11.55;;
75272;SDS011;63869;52.344;16.928;2023-02-23T08:24:17;27.08;;;12.68;;
75272;SDS011;63869;52.344;16.928;2023-02-23T08:26:42;24.45;;;10.65;;
75272;SDS011;63869;52.344;16.928;2023-02-23T08:29:08;25.50;;;10.77;;
75272;SDS011;63869;52.344;16.928;2023-02-23T08:31:34;24.08;;;10.30;;
75272;SDS011;63869;52.344;16.928;2023-02-23T08:33:59;22.33;;;10.27;;
75272;SDS011;63869;52.344;16.928;2023-02-23T08:36:25;22.90;;;9.98;;
75272;SDS011;63869;52.344;16.928;2023-02-23T08:38:51;22.52;;;10.55;;
75272;SDS011;63869;52.344;16.928;2023-02-23T08:41:20;23.00;;;11.15;;
75272;SDS011;63869;52.344;16.928;2023-02-23T08:43:45;21.65;;;10.45;;
75272;SDS011;63869;52.344;16.928;2023-02-23T08:46:11;22.85;;;10.93;;
75272;SDS011;63869;52.344;16.928;2023-02-23T08:48:37;20.77;;;10.60;;
75272;SDS011;63869;52.344;16.928;2023-02-23T08:51:04;24.98;;;10.68;;
75272;SDS011;63869;52.344;16.928;2023-02-23T08:53:31;23.77;;;11.00;;
75272;SDS011;63869;52.344;16.928;2023-02-23T08:55:59;24.55;;;10.02;;
75272;SDS011;63869;52.344;16.928;2023-02-23T08:58:26;23.13;;;10.52;;
75272;SDS011;63869;52.344;16.928;2023-02-23T09:00:54;24.83;;;10.60;;
75272;SDS011;63869;52.344;16.928;2023-02-23T09:03:20;26.45;;;11.70;;
75272;SDS011;63869;52.344;16.928;2023-02-23T09:05:46;20.75;;;10.88;;
75272;SDS011;63869;52.344;16.928;2023-02-23T09:08:12;22.17;;;10.10;;
75272;SDS011;63869;52.344;16.928;2023-02-23T09:10:38;23.27;;;11.05;;
75272;SDS011;63869;52.344;16.928;2023-02-23T09:13:04;23.27;;;11.48;;
75272;SDS011;63869;52.344;16.928;2023-02-23T09:15:29;23.83;;;11.55;;
75272;SDS011;63869;52.344;16.928;2023-02-23T09:17:58;26.17;;;11.30;;
75272;SDS011;63869;52.344;16.928;2023-02-23T09:20:27;55.05;;;24.92;;
75272;SDS011;63869;52.344;16.928;2023-02-23T09:22:52;25.50;;;11.85;;
75272;SDS011;63869;52.344;16.928;2023-02-23T09:25:18;24.48;;;10.57;;
75272;SDS011;63869;52.344;16.928;2023-02-23T09:27:47;23.52;;;11.32;;
75272;SDS011;63869;52.344;16.928;2023-02-23T09:30:13;23.20;;;11.38;;
75272;SDS011;63869;52.344;16.928;2023-02-23T09:32:42;22.40;;;10.98;;
75272;SDS011;63869;52.344;16.928;2023-02-23T09:35:09;25.50;;;11.25;;
75272;SDS011;63869;52.344;16.928;2023-02-23T09:37:34;25.00;;;11.30;;
75272;SDS011;63869;52.344;16.928;2023-02-23T09:40:00;25.80;;;11.13;;
75272;SDS011;63869;52.344;16.928;2023-02-23T09:45:42;23.52;;;10.57;;
75272;SDS011;63869;52.344;16.928;2023-02-23T09:50:51;24.73;;;11.05;;
75272;SDS011;63869;52.344;16.928;2023-02-23T09:53:23;28.02;;;12.27;;
75272;SDS011;63869;52.344;16.928;2023-02-23T09:55:54;26.35;;;11.52;;
75272;SDS011;63869;52.344;16.928;2023-02-23T09:58:28;21.98;;;10.18;;
75272;SDS011;63869;52.344;16.928;2023-02-23T10:03:48;24.80;;;10.55;;
75272;SDS011;63869;52.344;16.928;2023-02-23T10:06:18;22.00;;;10.60;;
75272;SDS011;63869;52.344;16.928;2023-02-23T10:11:45;21.10;;;10.88;;
75272;SDS011;63869;52.344;16.928;2023-02-23T10:17:26;22.45;;;11.40;;
75272;SDS011;63869;52.344;16.928;2023-02-23T10:20:02;24.23;;;11.15;;
75272;SDS011;63869;52.344;16.928;2023-02-23T10:22:37;23.20;;;11.82;;
75272;SDS011;63869;52.344;16.928;2023-02-23T10:25:08;22.92;;;11.45;;
75272;SDS011;63869;52.344;16.928;2023-02-23T10:27:39;28.38;;;12.55;;
75272;SDS011;63869;52.344;16.928;2023-02-23T10:30:20;26.08;;;11.80;;
75272;SDS011;63869;52.344;16.928;2023-02-23T10:32:53;26.30;;;11.70;;
75272;SDS011;63869;52.344;16.928;2023-02-23T10:35:29;24.85;;;11.32;;
75272;SDS011;63869;52.344;16.928;2023-02-23T10:37:55;23.55;;;11.55;;
75272;SDS011;63869;52.344;16.928;2023-02-23T10:40:22;22.65;;;11.65;;
75272;SDS011;63869;52.344;16.928;2023-02-23T10:42:51;23.27;;;11.45;;
75272;SDS011;63869;52.344;16.928;2023-02-23T10:45:18;26.23;;;11.30;;
75272;SDS011;63869;52.344;16.928;2023-02-23T10:48:01;21.42;;;11.20;;
75272;SDS011;63869;52.344;16.928;2023-02-23T10:50:30;24.25;;;11.60;;
75272;SDS011;63869;52.344;16.928;2023-02-23T10:52:59;24.20;;;11.73;;
75272;SDS011;63869;52.344;16.928;2023-02-23T10:55:30;22.33;;;11.55;;
75272;SDS011;63869;52.344;16.928;2023-02-23T10:58:38;23.70;;;11.25;;
75272;SDS011;63869;52.344;16.928;2023-02-23T11:03:35;25.63;;;11.95;;
75272;SDS011;63869;52.344;16.928;2023-02-23T11:06:03;22.05;;;11.05;;
75272;SDS011;63869;52.344;16.928;2023-02-23T11:08:31;24.90;;;11.63;;
75272;SDS011;63869;52.344;16.928;2023-02-23T11:11:01;24.95;;;11.25;;
75272;SDS011;63869;52.344;16.928;2023-02-23T11:13:40;23.67;;;11.88;;
75272;SDS011;63869;52.344;16.928;2023-02-23T11:16:30;27.65;;;11.68;;
75272;SDS011;63869;52.344;16.928;2023-02-23T11:19:01;25.42;;;11.13;;
75272;SDS011;63869;52.344;16.928;2023-02-23T11:23:57;21.67;;;11.02;;
75272;SDS011;63869;52.344;16.928;2023-02-23T11:29:02;20.77;;;10.68;;
75272;SDS011;63869;52.344;16.928;2023-02-23T11:31:36;22.33;;;11.52;;
75272;SDS011;63869;52.344;16.928;2023-02-23T11:34:02;23.25;;;12.27;;
75272;SDS011;63869;52.344;16.928;2023-02-23T11:36:31;25.27;;;11.90;;
75272;SDS011;63869;52.344;16.928;2023-02-23T11:41:31;22.92;;;11.48;;
75272;SDS011;63869;52.344;16.928;2023-02-23T11:43:59;25.02;;;12.20;;
75272;SDS011;63869;52.344;16.928;2023-02-23T11:46:26;21.27;;;11.23;;
75272;SDS011;63869;52.344;16.928;2023-02-23T11:49:06;22.05;;;11.52;;
75272;SDS011;63869;52.344;16.928;2023-02-23T11:51:39;22.13;;;11.38;;
75272;SDS011;63869;52.344;16.928;2023-02-23T11:54:06;23.08;;;12.35;;
75272;SDS011;63869;52.344;16.928;2023-02-23T11:56:42;20.60;;;11.07;;
75272;SDS011;63869;52.344;16.928;2023-02-23T11:59:16;25.50;;;11.95;;
75272;SDS011;63869;52.344;16.928;2023-02-23T12:01:46;24.15;;;12.18;;
75272;SDS011;63869;52.344;16.928;2023-02-23T12:04:26;23.05;;;11.77;;
75272;SDS011;63869;52.344;16.928;2023-02-23T12:09:45;22.95;;;11.35;;
75272;SDS011;63869;52.344;16.928;2023-02-23T12:12:14;23.48;;;12.07;;
75272;SDS011;63869;52.344;16.928;2023-02-23T12:14:45;21.13;;;10.82;;
75272;SDS011;63869;52.344;16.928;2023-02-23T12:20:16;25.33;;;13.13;;
75272;SDS011;63869;52.344;16.928;2023-02-23T12:22:54;27.42;;;13.65;;
75272;SDS011;63869;52.344;16.928;2023-02-23T12:25:24;25.48;;;12.05;;
75272;SDS011;63869;52.344;16.928;2023-02-23T12:27:56;23.90;;;12.65;;
75272;SDS011;63869;52.344;16.928;2023-02-23T12:33:10;26.25;;;13.57;;
75272;SDS011;63869;52.344;16.928;2023-02-23T12:35:52;20.02;;;11.95;;
75272;SDS011;63869;52.344;16.928;2023-02-23T12:40:55;25.67;;;12.45;;
75272;SDS011;63869;52.344;16.928;2023-02-23T12:51:45;24.98;;;12.45;;
75272;SDS011;63869;52.344;16.928;2023-02-23T12:54:15;28.08;;;13.68;;
75272;SDS011;63869;52.344;16.928;2023-02-23T12:56:53;25.33;;;12.82;;
75272;SDS011;63869;52.344;16.928;2023-02-23T13:02:02;23.70;;;13.13;;
75272;SDS011;63869;52.344;16.928;2023-02-23T13:13:03;24.60;;;12.77;;
75272;SDS011;63869;52.344;16.928;2023-02-23T13:16:03;22.83;;;12.20;;
75272;SDS011;63869;52.344;16.928;2023-02-23T13:21:23;26.10;;;12.77;;
75272;SDS011;63869;52.344;16.928;2023-02-23T13:23:55;23.73;;;12.95;;
75272;SDS011;63869;52.344;16.928;2023-02-23T13:29:34;21.92;;;12.32;;
75272;SDS011;63869;52.344;16.928;2023-02-23T13:32:02;21.80;;;12.63;;
75272;SDS011;63869;52.344;16.928;2023-02-23T13:34:33;25.13;;;12.32;;
75272;SDS011;63869;52.344;16.928;2023-02-23T13:37:02;24.13;;;12.57;;
75272;SDS011;63869;52.344;16.928;2023-02-23T13:39:34;23.50;;;11.90;;
75272;SDS011;63869;52.344;16.928;2023-02-23T13:53:39;24.50;;;12.65;;
75272;SDS011;63869;52.344;16.928;2023-02-23T13:56:13;24.40;;;12.48;;
75272;SDS011;63869;52.344;16.928;2023-02-23T13:58:50;26.85;;;12.98;;
75272;SDS011;63869;52.344;16.928;2023-02-23T14:01:21;25.95;;;12.85;;
75272;SDS011;63869;52.344;16.928;2023-02-23T14:03:54;27.23;;;13.00;;
75272;SDS011;63869;52.344;16.928;2023-02-23T14:06:23;24.65;;;13.77;;
75272;SDS011;63869;52.344;16.928;2023-02-23T14:08:56;27.15;;;12.75;;
75272;SDS011;63869;52.344;16.928;2023-02-23T14:14:02;23.73;;;11.60;;
75272;SDS011;63869;52.344;16.928;2023-02-23T14:16:29;26.77;;;12.18;;
75272;SDS011;63869;52.344;16.928;2023-02-23T14:21:58;24.40;;;12.18;;
75272;SDS011;63869;52.344;16.928;2023-02-23T14:24:28;26.58;;;12.10;;
75272;SDS011;63869;52.344;16.928;2023-02-23T14:29:37;22.58;;;11.80;;
75272;SDS011;63869;52.344;16.928;2023-02-23T14:34:43;25.63;;;12.93;;
75272;SDS011;63869;52.344;16.928;2023-02-23T14:42:38;22.92;;;12.23;;
75272;SDS011;63869;52.344;16.928;2023-02-23T14:45:25;26.45;;;12.52;;
75272;SDS011;63869;52.344;16.928;2023-02-23T14:47:51;24.40;;;12.68;;
75272;SDS011;63869;52.344;16.928;2023-02-23T14:50:29;24.25;;;12.05;;
75272;SDS011;63869;52.344;16.928;2023-02-23T14:52:56;30.08;;;14.98;;
75272;SDS011;63869;52.344;16.928;2023-02-23T14:55:24;25.27;;;12.48;;
75272;SDS011;63869;52.344;16.928;2023-02-23T14:57:52;26.70;;;12.65;;
75272;SDS011;63869;52.344;16.928;2023-02-23T15:00:28;30.45;;;13.38;;
75272;SDS011;63869;52.344;16.928;2023-02-23T15:02:57;25.08;;;12.70;;
75272;SDS011;63869;52.344;16.928;2023-02-23T15:05:29;25.25;;;13.10;;
75272;SDS011;63869;52.344;16.928;2023-02-23T15:08:00;23.20;;;12.57;;
75272;SDS011;63869;52.344;16.928;2023-02-23T15:12:56;25.83;;;12.38;;
75272;SDS011;63869;52.344;16.928;2023-02-23T15:15:23;27.33;;;13.13;;
75272;SDS011;63869;52.344;16.928;2023-02-23T15:17:51;45.30;;;18.58;;
75272;SDS011;63869;52.344;16.928;2023-02-23T15:20:20;27.63;;;13.38;;
75272;SDS011;63869;52.344;16.928;2023-02-23T15:25:23;25.58;;;12.82;;
75272;SDS011;63869;52.344;16.928;2023-02-23T15:27:50;28.75;;;12.30;;
75272;SDS011;63869;52.344;16.928;2023-02-23T15:32:44;26.77;;;11.93;;
75272;SDS011;63869;52.344;16.928;2023-02-23T15:35:11;24.10;;;11.93;;
75272;SDS011;63869;52.344;16.928;2023-02-23T15:37:39;26.00;;;12.07;;
75272;SDS011;63869;52.344;16.928;2023-02-23T15:40:18;25.55;;;12.48;;
75272;SDS011;63869;52.344;16.928;2023-02-23T15:42:47;26.65;;;12.80;;
75272;SDS011;63869;52.344;16.928;2023-02-23T15:45:18;27.83;;;13.80;;
75272;SDS011;63869;52.344;16.928;2023-02-23T15:47:46;24.50;;;13.27;;
75272;SDS011;63869;52.344;16.928;2023-02-23T15:50:21;27.60;;;14.60;;
75272;SDS011;63869;52.344;16.928;2023-02-23T15:52:51;35.58;;;16.90;;
75272;SDS011;63869;52.344;16.928;2023-02-23T15:55:24;43.37;;;18.50;;
75272;SDS011;63869;52.344;16.928;2023-02-23T15:57:56;35.70;;;16.20;;
75272;SDS011;63869;52.344;16.928;2023-02-23T16:00:35;39.30;;;17.95;;
75272;SDS011;63869;52.344;16.928;2023-02-23T16:03:03;49.95;;;22.10;;
75272;SDS011;63869;52.344;16.928;2023-02-23T16:05:30;52.58;;;21.77;;
75272;SDS011;63869;52.344;16.928;2023-02-23T16:08:14;44.03;;;19.88;;
75272;SDS011;63869;52.344;16.928;2023-02-23T16:10:47;40.47;;;18.60;;
75272;SDS011;63869;52.344;16.928;2023-02-23T16:13:16;40.95;;;19.15;;
75272;SDS011;63869;52.344;16.928;2023-02-23T16:15:45;33.10;;;16.58;;
75272;SDS011;63869;52.344;16.928;2023-02-23T16:18:16;31.80;;;13.85;;
75272;SDS011;63869;52.344;16.928;2023-02-23T16:20:51;33.25;;;14.63;;
75272;SDS011;63869;52.344;16.928;2023-02-23T16:23:24;27.90;;;15.00;;
75272;SDS011;63869;52.344;16.928;2023-02-23T16:25:56;24.73;;;13.57;;
75272;SDS011;63869;52.344;16.928;2023-02-23T16:28:29;29.35;;;13.68;;
75272;SDS011;63869;52.344;16.928;2023-02-23T16:31:00;30.38;;;14.93;;
75272;SDS011;63869;52.344;16.928;2023-02-23T16:38:45;40.30;;;18.80;;
75272;SDS011;63869;52.344;16.928;2023-02-23T16:41:24;32.50;;;17.65;;
75272;SDS011;63869;52.344;16.928;2023-02-23T16:43:54;30.88;;;15.10;;
75272;SDS011;63869;52.344;16.928;2023-02-23T16:46:24;29.33;;;13.93;;
75272;SDS011;63869;52.344;16.928;2023-02-23T16:48:56;31.10;;;15.45;;
75272;SDS011;63869;52.344;16.928;2023-02-23T16:51:29;42.72;;;17.42;;
75272;SDS011;63869;52.344;16.928;2023-02-23T16:53:57;42.72;;;21.13;;
75272;SDS011;63869;52.344;16.928;2023-02-23T16:56:23;45.10;;;21.33;;
75272;SDS011;63869;52.344;16.928;2023-02-23T16:58:52;39.80;;;18.80;;
75272;SDS011;63869;52.344;16.928;2023-02-23T17:01:22;43.70;;;18.35;;
75272;SDS011;63869;52.344;16.928;2023-02-23T17:03:47;42.72;;;17.95;;
75272;SDS011;63869;52.344;16.928;2023-02-23T17:06:12;54.58;;;23.42;;
75272;SDS011;63869;52.344;16.928;2023-02-23T17:08:38;99.80;;;35.38;;
75272;SDS011;63869;52.344;16.928;2023-02-23T17:11:05;61.78;;;24.27;;
75272;SDS011;63869;52.344;16.928;2023-02-23T17:13:35;44.05;;;18.75;;
75272;SDS011;63869;52.344;16.928;2023-02-23T17:16:03;41.67;;;18.23;;
75272;SDS011;63869;52.344;16.928;2023-02-23T17:18:36;47.08;;;19.27;;
75272;SDS011;63869;52.344;16.928;2023-02-23T17:21:03;38.28;;;17.65;;
75272;SDS011;63869;52.344;16.928;2023-02-23T17:23:34;38.55;;;16.88;;
75272;SDS011;63869;52.344;16.928;2023-02-23T17:26:07;36.55;;;16.55;;
75272;SDS011;63869;52.344;16.928;2023-02-23T17:28:33;40.10;;;17.05;;
75272;SDS011;63869;52.344;16.928;2023-02-23T17:30:59;41.08;;;18.35;;
75272;SDS011;63869;52.344;16.928;2023-02-23T17:33:25;44.53;;;18.95;;
75272;SDS011;63869;52.344;16.928;2023-02-23T17:35:51;50.70;;;18.98;;
75272;SDS011;63869;52.344;16.928;2023-02-23T17:38:17;54.05;;;21.50;;
75272;SDS011;63869;52.344;16.928;2023-02-23T17:40:46;66.25;;;24.17;;
75272;SDS011;63869;52.344;16.928;2023-02-23T17:43:21;59.17;;;24.02;;
75272;SDS011;63869;52.344;16.928;2023-02-23T17:45:46;51.67;;;22.08;;
75272;SDS011;63869;52.344;16.928;2023-02-23T17:48:11;45.67;;;20.02;;
75272;SDS011;63869;52.344;16.928;2023-02-23T17:50:37;43.75;;;18.75;;
75272;SDS011;63869;52.344;16.928;2023-02-23T17:53:02;49.80;;;20.30;;
75272;SDS011;63869;52.344;16.928;2023-02-23T17:55:27;46.92;;;19.55;;
75272;SDS011;63869;52.344;16.928;2023-02-23T17:57:53;31.42;;;13.40;;
75272;SDS011;63869;52.344;16.928;2023-02-23T18:00:18;23.95;;;10.57;;
75272;SDS011;63869;52.344;16.928;2023-02-23T18:02:44;23.42;;;10.52;;
75272;SDS011;63869;52.344;16.928;2023-02-23T18:05:10;16.65;;;8.15;;
75272;SDS011;63869;52.344;16.928;2023-02-23T18:07:36;26.10;;;9.23;;
75272;SDS011;63869;52.344;16.928;2023-02-23T18:10:02;17.58;;;8.80;;
75272;SDS011;63869;52.344;16.928;2023-02-23T18:12:29;18.40;;;8.75;;
75272;SDS011;63869;52.344;16.928;2023-02-23T18:14:56;20.70;;;9.48;;
75272;SDS011;63869;52.344;16.928;2023-02-23T18:17:21;19.00;;;9.05;;
75272;SDS011;63869;52.344;16.928;2023-02-23T18:19:47;22.88;;;9.45;;
75272;SDS011;63869;52.344;16.928;2023-02-23T18:22:15;17.77;;;8.93;;
75272;SDS011;63869;52.344;16.928;2023-02-23T18:24:41;20.08;;;9.88;;
75272;SDS011;63869;52.344;16.928;2023-02-23T18:27:08;17.40;;;8.77;;
75272;SDS011;63869;52.344;16.928;2023-02-23T18:29:33;55.80;;;27.02;;
75272;SDS011;63869;52.344;16.928;2023-02-23T18:32:00;58.20;;;25.77;;
75272;SDS011;63869;52.344;16.928;2023-02-23T18:34:27;60.42;;;28.15;;
75272;SDS011;63869;52.344;16.928;2023-02-23T18:36:53;53.90;;;25.80;;
75272;SDS011;63869;52.344;16.928;2023-02-23T18:39:19;57.78;;;28.55;;
75272;SDS011;63869;52.344;16.928;2023-02-23T18:41:45;66.75;;;29.88;;
75272;SDS011;63869;52.344;16.928;2023-02-23T18:44:11;70.20;;;31.02;;
75272;SDS011;63869;52.344;16.928;2023-02-23T18:46:38;83.90;;;34.40;;
75272;SDS011;63869;52.344;16.928;2023-02-23T18:49:04;109.05;;;38.83;;
75272;SDS011;63869;52.344;16.928;2023-02-23T18:51:30;141.05;;;47.20;;
75272;SDS011;63869;52.344;16.928;2023-02-23T18:53:56;86.65;;;33.03;;
75272;SDS011;63869;52.344;16.928;2023-02-23T18:56:23;69.07;;;29.58;;
75272;SDS011;63869;52.344;16.928;2023-02-23T18:58:52;58.03;;;25.75;;
75272;SDS011;63869;52.344;16.928;2023-02-23T19:01:21;58.28;;;26.30;;
75272;SDS011;63869;52.344;16.928;2023-02-23T19:03:48;56.55;;;25.67;;
75272;SDS011;63869;52.344;16.928;2023-02-23T19:06:16;59.65;;;25.23;;
75272;SDS011;63869;52.344;16.928;2023-02-23T19:08:42;50.72;;;24.70;;
75272;SDS011;63869;52.344;16.928;2023-02-23T19:11:09;52.83;;;24.38;;
75272;SDS011;63869;52.344;16.928;2023-02-23T19:13:34;56.70;;;24.63;;
75272;SDS011;63869;52.344;16.928;2023-02-23T19:16:05;53.63;;;24.75;;
75272;SDS011;63869;52.344;16.928;2023-02-23T19:18:31;61.58;;;26.17;;
75272;SDS011;63869;52.344;16.928;2023-02-23T19:20:57;61.03;;;24.63;;
75272;SDS011;63869;52.344;16.928;2023-02-23T19:23:22;57.00;;;25.27;;
75272;SDS011;63869;52.344;16.928;2023-02-23T19:25:48;54.75;;;26.02;;
75272;SDS011;63869;52.344;16.928;2023-02-23T19:28:14;60.83;;;28.50;;
75272;SDS011;63869;52.344;16.928;2023-02-23T19:30:40;56.55;;;27.52;;
75272;SDS011;63869;52.344;16.928;2023-02-23T19:33:13;57.65;;;27.38;;
75272;SDS011;63869;52.344;16.928;2023-02-23T19:35:39;62.85;;;28.50;;
75272;SDS011;63869;52.344;16.928;2023-02-23T19:38:05;74.60;;;31.08;;
75272;SDS011;63869;52.344;16.928;2023-02-23T19:40:31;67.18;;;30.05;;
75272;SDS011;63869;52.344;16.928;2023-02-23T19:42:59;65.38;;;28.17;;
75272;SDS011;63869;52.344;16.928;2023-02-23T19:45:24;67.68;;;30.35;;
75272;SDS011;63869;52.344;16.928;2023-02-23T19:47:53;67.78;;;30.55;;
75272;SDS011;63869;52.344;16.928;2023-02-23T19:50:19;72.00;;;32.22;;
75272;SDS011;63869;52.344;16.928;2023-02-23T19:52:45;74.75;;;32.08;;
75272;SDS011;63869;52.344;16.928;2023-02-23T19:55:12;79.45;;;34.97;;
75272;SDS011;63869;52.344;16.928;2023-02-23T19:57:38;78.32;;;34.50;;
75272;SDS011;63869;52.344;16.928;2023-02-23T20:00:04;78.72;;;36.83;;
75272;SDS011;63869;52.344;16.928;2023-02-23T20:02:34;80.90;;;34.97;;
75272;SDS011;63869;52.344;16.928;2023-02-23T20:05:06;78.20;;;34.53;;
75272;SDS011;63869;52.344;16.928;2023-02-23T20:07:36;82.70;;;36.33;;